sensor_id;sensor_type;location;lat;lon;timestamp;pressure;altitude;pressure_sealevel;temperature;humidity
32735;BME280;19112;51.076;3.706;2023-02-01T00:00:26;102127.31;;;8.63;79.13
32735;BME280;19112;51.076;3.706;2023-02-01T00:02:52;102203.81;;;9.00;78.85
32735;BME280;19112;51.076;3.706;2023-02-01T00:05:17;102205.22;;;8.95;78.09
32735;BME280;19112;51.076;3.706;2023-02-01T00:07:47;102203.91;;;8.88;78.12
32735;BME280;19112;51.076;3.706;2023-02-01T00:10:14;101935.56;;;7.39;77.65
32735;BME280;19112;51.076;3.706;2023-02-01T00:12:39;102191.97;;;8.79;77.71
32735;BME280;19112;51.076;3.706;2023-02-01T00:15:06;102106.09;;;8.17;77.88
32735;BME280;19112;51.076;3.706;2023-02-01T00:17:32;102146.47;;;8.35;77.57
32735;BME280;19112;51.076;3.706;2023-02-01T00:19:57;102097.84;;;8.11;77.07
32735;BME280;19112;51.076;3.706;2023-02-01T00:22:24;102081.19;;;7.96;77.11
32735;BME280;19112;51.076;3.706;2023-02-01T00:24:50;102179.50;;;8.47;76.44
32735;BME280;19112;51.076;3.706;2023-02-01T00:27:16;102162.53;;;8.27;76.62
32735;BME280;19112;51.076;3.706;2023-02-01T00:29:45;102074.59;;;7.74;76.95
32735;BME280;19112;51.076;3.706;2023-02-01T00:32:11;102056.50;;;7.64;77.20
32735;BME280;19112;51.076;3.706;2023-02-01T00:34:37;102132.59;;;7.95;76.88
32735;BME280;19112;51.076;3.706;2023-02-01T00:37:03;102165.13;;;8.13;77.19
32735;BME280;19112;51.076;3.706;2023-02-01T00:39:29;102164.16;;;7.98;76.84
32735;BME280;19112;51.076;3.706;2023-02-01T00:41:55;102142.97;;;7.80;77.03
32735;BME280;19112;51.076;3.706;2023-02-01T00:44:21;102126.47;;;7.81;76.42
32735;BME280;19112;51.076;3.706;2023-02-01T00:46:46;101824.47;;;5.96;76.50
32735;BME280;19112;51.076;3.706;2023-02-01T00:49:12;101868.25;;;6.27;76.62
32735;BME280;19112;51.076;3.706;2023-02-01T00:51:38;101948.06;;;6.63;76.06
32735;BME280;19112;51.076;3.706;2023-02-01T00:54:04;102070.41;;;7.37;76.75
32735;BME280;19112;51.076;3.706;2023-02-01T00:56:29;101929.97;;;6.53;76.63
32735;BME280;19112;51.076;3.706;2023-02-01T00:58:55;102053.19;;;7.14;76.62
32735;BME280;19112;51.076;3.706;2023-02-01T01:01:27;101879.56;;;6.14;76.67
32735;BME280;19112;51.076;3.706;2023-02-01T01:03:56;102135.13;;;7.54;76.46
32735;BME280;19112;51.076;3.706;2023-02-01T01:06:25;102146.56;;;7.43;76.30
32735;BME280;19112;51.076;3.706;2023-02-01T01:08:53;101870.84;;;5.89;76.05
32735;BME280;19112;51.076;3.706;2023-02-01T01:11:26;101701.63;;;4.89;76.43
32735;BME280;19112;51.076;3.706;2023-02-01T01:13:54;101882.25;;;5.91;76.35
32735;BME280;19112;51.076;3.706;2023-02-01T01:16:22;102024.03;;;6.68;76.21
32735;BME280;19112;51.076;3.706;2023-02-01T01:18:48;101968.63;;;6.20;76.24
32735;BME280;19112;51.076;3.706;2023-02-01T01:21:15;101875.69;;;5.71;76.14
32735;BME280;19112;51.076;3.706;2023-02-01T01:23:43;102087.81;;;6.85;76.10
32735;BME280;19112;51.076;3.706;2023-02-01T01:26:14;102179.31;;;7.51;76.05
32735;BME280;19112;51.076;3.706;2023-02-01T01:28:41;102089.44;;;6.96;75.62
32735;BME280;19112;51.076;3.706;2023-02-01T01:31:11;102162.00;;;7.26;75.66
32735;BME280;19112;51.076;3.706;2023-02-01T01:33:38;102103.59;;;6.99;75.66
32735;BME280;19112;51.076;3.706;2023-02-01T01:36:08;102086.69;;;6.81;75.19
32735;BME280;19112;51.076;3.706;2023-02-01T01:38:39;102100.03;;;6.86;75.20
32735;BME280;19112;51.076;3.706;2023-02-01T01:41:06;102082.09;;;6.90;74.91
32735;BME280;19112;51.076;3.706;2023-02-01T01:43:50;102199.31;;;7.50;75.24
32735;BME280;19112;51.076;3.706;2023-02-01T01:46:26;102094.25;;;6.90;75.04
32735;BME280;19112;51.076;3.706;2023-02-01T01:49:13;102149.75;;;7.25;74.89
32735;BME280;19112;51.076;3.706;2023-02-01T01:51:51;102199.63;;;7.55;74.77
32735;BME280;19112;51.076;3.706;2023-02-01T01:54:29;102028.22;;;6.66;74.90
32735;BME280;19112;51.076;3.706;2023-02-01T01:57:04;102111.53;;;7.01;74.82
32735;BME280;19112;51.076;3.706;2023-02-01T01:59:32;102038.31;;;6.48;74.35
32735;BME280;19112;51.076;3.706;2023-02-01T02:01:59;102065.56;;;6.65;74.39
32735;BME280;19112;51.076;3.706;2023-02-01T02:04:25;101835.06;;;5.36;74.81
32735;BME280;19112;51.076;3.706;2023-02-01T02:07:07;102195.00;;;7.38;74.69
32735;BME280;19112;51.076;3.706;2023-02-01T02:09:35;102212.88;;;7.31;74.82
32735;BME280;19112;51.076;3.706;2023-02-01T02:12:00;102151.50;;;7.00;74.62
32735;BME280;19112;51.076;3.706;2023-02-01T02:14:27;101939.50;;;5.89;74.77
32735;BME280;19112;51.076;3.706;2023-02-01T02:23:31;102175.47;;;7.19;75.16
32735;BME280;19112;51.076;3.706;2023-02-01T02:32:15;102164.56;;;7.13;74.92
32735;BME280;19112;51.076;3.706;2023-02-01T02:35:18;102164.38;;;7.10;75.48
32735;BME280;19112;51.076;3.706;2023-02-01T02:38:12;101951.97;;;5.93;75.24
32735;BME280;19112;51.076;3.706;2023-02-01T02:41:05;102035.03;;;6.50;75.22
32735;BME280;19112;51.076;3.706;2023-02-01T02:43:49;101926.91;;;5.95;75.21
32735;BME280;19112;51.076;3.706;2023-02-01T02:46:46;102021.28;;;6.53;75.09
32735;BME280;19112;51.076;3.706;2023-02-01T02:50:17;101966.34;;;6.25;74.97
32735;BME280;19112;51.076;3.706;2023-02-01T02:53:16;102161.53;;;7.32;74.86
32735;BME280;19112;51.076;3.706;2023-02-01T02:56:05;101968.63;;;6.20;74.92
32735;BME280;19112;51.076;3.706;2023-02-01T02:58:50;102056.06;;;6.78;75.25
32735;BME280;19112;51.076;3.706;2023-02-01T03:01:37;102108.81;;;6.99;74.95
32735;BME280;19112;51.076;3.706;2023-02-01T03:04:21;102157.59;;;7.25;74.90
32735;BME280;19112;51.076;3.706;2023-02-01T03:06:49;102002.13;;;6.27;74.92
32735;BME280;19112;51.076;3.706;2023-02-01T03:11:52;102136.16;;;7.04;75.07
32735;BME280;19112;51.076;3.706;2023-02-01T03:14:41;102158.38;;;7.24;75.14
32735;BME280;19112;51.076;3.706;2023-02-01T03:17:21;102040.84;;;6.60;75.29
32735;BME280;19112;51.076;3.706;2023-02-01T03:19:52;101939.88;;;6.07;75.44
32735;BME280;19112;51.076;3.706;2023-02-01T03:22:24;102079.78;;;6.95;75.18
32735;BME280;19112;51.076;3.706;2023-02-01T03:25:02;102152.19;;;7.35;75.42
32735;BME280;19112;51.076;3.706;2023-02-01T03:27:47;102131.84;;;7.18;75.21
32735;BME280;19112;51.076;3.706;2023-02-01T03:30:22;101996.25;;;6.43;75.19
32735;BME280;19112;51.076;3.706;2023-02-01T03:32:53;102085.03;;;6.95;75.33
32735;BME280;19112;51.076;3.706;2023-02-01T03:35:46;102130.03;;;7.17;75.23
32735;BME280;19112;51.076;3.706;2023-02-01T03:38:30;102164.34;;;7.35;75.01
32735;BME280;19112;51.076;3.706;2023-02-01T03:41:24;102167.97;;;7.37;75.52
32735;BME280;19112;51.076;3.706;2023-02-01T03:46:37;102179.41;;;7.39;74.90
32735;BME280;19112;51.076;3.706;2023-02-01T03:49:11;101937.47;;;5.97;75.12
32735;BME280;19112;51.076;3.706;2023-02-01T03:51:40;102175.97;;;7.27;75.16
32735;BME280;19112;51.076;3.706;2023-02-01T03:54:12;102162.91;;;7.27;75.06
32735;BME280;19112;51.076;3.706;2023-02-01T03:56:40;102176.28;;;7.31;75.37
32735;BME280;19112;51.076;3.706;2023-02-01T03:59:10;101917.22;;;5.81;74.89
32735;BME280;19112;51.076;3.706;2023-02-01T04:01:36;101618.44;;;4.15;74.71
32735;BME280;19112;51.076;3.706;2023-02-01T04:04:02;101857.13;;;5.41;75.33
32735;BME280;19112;51.076;3.706;2023-02-01T04:06:28;101749.06;;;4.85;75.13
32735;BME280;19112;51.076;3.706;2023-02-01T04:08:54;102162.09;;;7.15;75.16
32735;BME280;19112;51.076;3.706;2023-02-01T04:11:20;102164.97;;;7.06;75.59
32735;BME280;19112;51.076;3.706;2023-02-01T04:13:46;102009.38;;;6.07;75.88
32735;BME280;19112;51.076;3.706;2023-02-01T04:16:12;102174.00;;;6.98;75.85
32735;BME280;19112;51.076;3.706;2023-02-01T04:18:37;102176.63;;;6.98;75.89
32735;BME280;19112;51.076;3.706;2023-02-01T04:21:04;101912.09;;;5.58;75.79
32735;BME280;19112;51.076;3.706;2023-02-01T04:23:29;101906.38;;;5.50;75.55
32735;BME280;19112;51.076;3.706;2023-02-01T04:26:04;101868.34;;;5.40;75.40
32735;BME280;19112;51.076;3.706;2023-02-01T04:28:30;102173.78;;;6.95;76.01
32735;BME280;19112;51.076;3.706;2023-02-01T04:30:56;102101.41;;;6.67;75.51
32735;BME280;19112;51.076;3.706;2023-02-01T04:33:23;101924.88;;;5.66;75.52
32735;BME280;19112;51.076;3.706;2023-02-01T04:35:49;102109.81;;;6.63;75.50
32735;BME280;19112;51.076;3.706;2023-02-01T04:38:15;102103.44;;;6.46;75.66
32735;BME280;19112;51.076;3.706;2023-02-01T04:40:40;102071.72;;;6.40;75.70
32735;BME280;19112;51.076;3.706;2023-02-01T04:43:06;102169.13;;;6.91;75.48
32735;BME280;19112;51.076;3.706;2023-02-01T04:45:33;101724.75;;;4.36;75.47
32735;BME280;19112;51.076;3.706;2023-02-01T04:47:59;102184.00;;;6.92;75.61
32735;BME280;19112;51.076;3.706;2023-02-01T04:50:25;102184.59;;;6.88;75.64
32735;BME280;19112;51.076;3.706;2023-02-01T04:52:50;101939.41;;;5.51;75.52
32735;BME280;19112;51.076;3.706;2023-02-01T04:55:16;101729.50;;;4.30;75.59
32735;BME280;19112;51.076;3.706;2023-02-01T04:57:42;102187.00;;;6.85;75.84
32735;BME280;19112;51.076;3.706;2023-02-01T05:00:09;102105.19;;;6.34;75.80
32735;BME280;19112;51.076;3.706;2023-02-01T05:02:35;102030.38;;;5.96;75.86
32735;BME280;19112;51.076;3.706;2023-02-01T05:05:02;102146.50;;;6.53;76.09
32735;BME280;19112;51.076;3.706;2023-02-01T05:07:28;102020.84;;;5.85;75.83
32735;BME280;19112;51.076;3.706;2023-02-01T05:09:53;102104.06;;;6.30;76.22
32735;BME280;19112;51.076;3.706;2023-02-01T05:12:20;102190.75;;;6.76;76.31
32735;BME280;19112;51.076;3.706;2023-02-01T05:15:05;102087.56;;;6.18;76.65
32735;BME280;19112;51.076;3.706;2023-02-01T05:17:31;102134.25;;;6.52;76.39
32735;BME280;19112;51.076;3.706;2023-02-01T05:19:56;102051.44;;;5.99;76.74
32735;BME280;19112;51.076;3.706;2023-02-01T05:22:22;102080.09;;;6.11;76.51
32735;BME280;19112;51.076;3.706;2023-02-01T05:24:48;101856.25;;;4.92;76.17
32735;BME280;19112;51.076;3.706;2023-02-01T05:27:14;102094.31;;;6.28;76.25
32735;BME280;19112;51.076;3.706;2023-02-01T05:29:40;102196.59;;;6.72;76.60
32735;BME280;19112;51.076;3.706;2023-02-01T05:32:05;102190.66;;;6.75;76.48
32735;BME280;19112;51.076;3.706;2023-02-01T05:34:31;102145.69;;;6.54;76.21
32735;BME280;19112;51.076;3.706;2023-02-01T05:36:57;102049.53;;;5.97;76.55
32735;BME280;19112;51.076;3.706;2023-02-01T05:39:23;102176.59;;;6.73;76.60
32735;BME280;19112;51.076;3.706;2023-02-01T05:41:48;101927.38;;;5.28;76.62
32735;BME280;19112;51.076;3.706;2023-02-01T05:44:14;102023.34;;;5.84;76.47
32735;BME280;19112;51.076;3.706;2023-02-01T05:46:40;101858.53;;;4.88;76.33
32735;BME280;19112;51.076;3.706;2023-02-01T05:49:06;102143.38;;;6.34;76.80
32735;BME280;19112;51.076;3.706;2023-02-01T05:51:33;102072.25;;;6.11;76.79
32735;BME280;19112;51.076;3.706;2023-02-01T05:53:59;102155.03;;;6.39;77.13
32735;BME280;19112;51.076;3.706;2023-02-01T05:56:25;102184.34;;;6.60;77.20
32735;BME280;19112;51.076;3.706;2023-02-01T05:58:51;101928.28;;;5.05;77.20
32735;BME280;19112;51.076;3.706;2023-02-01T06:01:16;102048.50;;;5.83;77.35
32735;BME280;19112;51.076;3.706;2023-02-01T06:03:42;102181.88;;;6.61;77.24
32735;BME280;19112;51.076;3.706;2023-02-01T06:06:08;102192.66;;;6.54;77.29
32735;BME280;19112;51.076;3.706;2023-02-01T06:08:34;102077.19;;;5.95;77.21
32735;BME280;19112;51.076;3.706;2023-02-01T06:11:02;102083.06;;;6.04;77.08
32735;BME280;19112;51.076;3.706;2023-02-01T06:13:29;102104.78;;;6.16;77.25
32735;BME280;19112;51.076;3.706;2023-02-01T06:15:56;101880.34;;;4.90;76.92
32735;BME280;19112;51.076;3.706;2023-02-01T06:18:24;101920.63;;;5.07;77.10
32735;BME280;19112;51.076;3.706;2023-02-01T06:20:57;101998.06;;;5.58;77.04
32735;BME280;19112;51.076;3.706;2023-02-01T06:23:23;101481.38;;;2.68;76.99
32735;BME280;19112;51.076;3.706;2023-02-01T06:26:12;101906.72;;;5.06;77.25
32735;BME280;19112;51.076;3.706;2023-02-01T06:28:37;101734.72;;;4.06;77.17
32735;BME280;19112;51.076;3.706;2023-02-01T06:31:05;101904.44;;;4.99;77.32
32735;BME280;19112;51.076;3.706;2023-02-01T06:33:33;101465.13;;;2.47;77.47
32735;BME280;19112;51.076;3.706;2023-02-01T06:36:02;101859.69;;;4.80;77.23
32735;BME280;19112;51.076;3.706;2023-02-01T06:38:29;101891.78;;;4.92;77.12
32735;BME280;19112;51.076;3.706;2023-02-01T06:40:57;102158.41;;;6.49;77.60
32735;BME280;19112;51.076;3.706;2023-02-01T06:43:24;102186.63;;;6.67;77.33
32735;BME280;19112;51.076;3.706;2023-02-01T06:45:51;102101.03;;;6.24;77.11
32735;BME280;19112;51.076;3.706;2023-02-01T06:48:17;101855.50;;;4.82;77.35
32735;BME280;19112;51.076;3.706;2023-02-01T06:50:44;102145.84;;;6.44;77.38
32735;BME280;19112;51.076;3.706;2023-02-01T06:53:10;102171.38;;;6.73;77.14
32735;BME280;19112;51.076;3.706;2023-02-01T06:55:36;102094.53;;;6.31;77.21
32735;BME280;19112;51.076;3.706;2023-02-01T06:58:02;102084.00;;;6.18;77.17
32735;BME280;19112;51.076;3.706;2023-02-01T07:00:29;102037.09;;;5.93;77.23
32735;BME280;19112;51.076;3.706;2023-02-01T07:02:56;102182.72;;;6.73;77.16
32735;BME280;19112;51.076;3.706;2023-02-01T07:05:22;102113.34;;;6.27;77.52
32735;BME280;19112;51.076;3.706;2023-02-01T07:07:48;101951.00;;;5.31;76.89
32735;BME280;19112;51.076;3.706;2023-02-01T07:10:14;102179.00;;;6.70;77.00
32735;BME280;19112;51.076;3.706;2023-02-01T07:12:40;102181.81;;;6.73;77.11
32735;BME280;19112;51.076;3.706;2023-02-01T07:15:06;102112.56;;;6.28;76.97
32735;BME280;19112;51.076;3.706;2023-02-01T07:17:32;102187.09;;;6.61;77.19
32735;BME280;19112;51.076;3.706;2023-02-01T07:19:58;102199.06;;;6.71;76.78
32735;BME280;19112;51.076;3.706;2023-02-01T07:22:26;102200.91;;;6.72;77.03
32735;BME280;19112;51.076;3.706;2023-02-01T07:24:52;102197.16;;;6.68;77.11
32735;BME280;19112;51.076;3.706;2023-02-01T07:27:17;102059.03;;;5.85;76.84
32735;BME280;19112;51.076;3.706;2023-02-01T07:29:43;102205.66;;;6.77;76.55
32735;BME280;19112;51.076;3.706;2023-02-01T07:32:09;101914.97;;;5.12;76.68
32735;BME280;19112;51.076;3.706;2023-02-01T07:34:35;102208.78;;;6.85;76.87
32735;BME280;19112;51.076;3.706;2023-02-01T07:37:01;102199.72;;;6.80;76.71
32735;BME280;19112;51.076;3.706;2023-02-01T07:39:26;102015.00;;;5.76;76.82
32735;BME280;19112;51.076;3.706;2023-02-01T07:41:54;102112.41;;;6.38;76.57
32735;BME280;19112;51.076;3.706;2023-02-01T07:44:20;101964.66;;;5.52;76.48
32735;BME280;19112;51.076;3.706;2023-02-01T07:46:49;102117.84;;;6.41;76.81
32735;BME280;19112;51.076;3.706;2023-02-01T07:49:15;102216.28;;;7.05;76.58
32735;BME280;19112;51.076;3.706;2023-02-01T07:51:43;102110.69;;;6.39;76.52
32735;BME280;19112;51.076;3.706;2023-02-01T07:54:09;102160.25;;;6.75;76.28
32735;BME280;19112;51.076;3.706;2023-02-01T07:56:35;101987.69;;;5.83;76.12
32735;BME280;19112;51.076;3.706;2023-02-01T07:59:00;102145.22;;;6.85;75.80
32735;BME280;19112;51.076;3.706;2023-02-01T08:01:28;102150.69;;;6.88;75.85
32735;BME280;19112;51.076;3.706;2023-02-01T08:04:01;102060.56;;;6.43;75.97
32735;BME280;19112;51.076;3.706;2023-02-01T08:06:30;102178.66;;;7.15;76.06
32735;BME280;19112;51.076;3.706;2023-02-01T08:08:57;102156.25;;;7.05;75.91
32735;BME280;19112;51.076;3.706;2023-02-01T08:11:24;102147.59;;;7.06;75.29
32735;BME280;19112;51.076;3.706;2023-02-01T08:13:51;101938.06;;;5.81;75.38
32735;BME280;19112;51.076;3.706;2023-02-01T08:16:19;101858.31;;;5.33;75.45
32735;BME280;19112;51.076;3.706;2023-02-01T08:18:45;102125.88;;;6.94;75.76
32735;BME280;19112;51.076;3.706;2023-02-01T08:21:18;102196.59;;;7.35;75.64
32735;BME280;19112;51.076;3.706;2023-02-01T08:23:45;102246.31;;;7.62;75.47
32735;BME280;19112;51.076;3.706;2023-02-01T08:26:23;102066.78;;;6.70;75.31
32735;BME280;19112;51.076;3.706;2023-02-01T08:29:02;102183.41;;;7.34;75.20
32735;BME280;19112;51.076;3.706;2023-02-01T08:31:29;102130.13;;;7.19;75.18
32735;BME280;19112;51.076;3.706;2023-02-01T08:33:59;101927.56;;;6.04;74.87
32735;BME280;19112;51.076;3.706;2023-02-01T08:36:28;102137.03;;;7.30;75.16
32735;BME280;19112;51.076;3.706;2023-02-01T08:38:54;102235.66;;;7.85;74.85
32735;BME280;19112;51.076;3.706;2023-02-01T08:41:24;102163.53;;;7.49;74.58
32735;BME280;19112;51.076;3.706;2023-02-01T08:43:51;102148.88;;;7.38;74.43
32735;BME280;19112;51.076;3.706;2023-02-01T08:46:17;102251.66;;;8.03;74.39
32735;BME280;19112;51.076;3.706;2023-02-01T08:48:43;102110.19;;;7.59;73.81
32735;BME280;19112;51.076;3.706;2023-02-01T08:51:12;102014.81;;;6.86;74.02
32735;BME280;19112;51.076;3.706;2023-02-01T08:53:39;102037.06;;;7.19;73.91
32735;BME280;19112;51.076;3.706;2023-02-01T08:56:11;101635.34;;;5.09;73.63
32735;BME280;19112;51.076;3.706;2023-02-01T08:58:37;102150.91;;;7.95;73.82
32735;BME280;19112;51.076;3.706;2023-02-01T09:01:05;101692.09;;;5.52;73.19
32735;BME280;19112;51.076;3.706;2023-02-01T09:03:32;102155.88;;;8.32;73.09
32735;BME280;19112;51.076;3.706;2023-02-01T09:06:08;102174.38;;;8.48;72.48
32735;BME280;19112;51.076;3.706;2023-02-01T09:08:34;102183.59;;;8.56;72.54
32735;BME280;19112;51.076;3.706;2023-02-01T09:11:03;102117.84;;;8.24;72.22
32735;BME280;19112;51.076;3.706;2023-02-01T09:13:29;102123.66;;;8.33;72.33
32735;BME280;19112;51.076;3.706;2023-02-01T09:15:55;102179.03;;;8.67;71.82
32735;BME280;19112;51.076;3.706;2023-02-01T09:18:21;102119.56;;;8.36;71.34
32735;BME280;19112;51.076;3.706;2023-02-01T09:20:47;102001.31;;;7.73;71.62
32735;BME280;19112;51.076;3.706;2023-02-01T09:23:13;102196.75;;;8.71;71.33
32735;BME280;19112;51.076;3.706;2023-02-01T09:25:39;102203.81;;;9.00;71.38
32735;BME280;19112;51.076;3.706;2023-02-01T09:28:06;102036.28;;;8.16;70.87
32735;BME280;19112;51.076;3.706;2023-02-01T09:30:33;102183.91;;;9.04;71.22
32735;BME280;19112;51.076;3.706;2023-02-01T09:32:59;102211.63;;;9.28;71.21
32735;BME280;19112;51.076;3.706;2023-02-01T09:35:25;102075.63;;;8.46;70.76
32735;BME280;19112;51.076;3.706;2023-02-01T09:37:53;102224.63;;;9.41;70.49
32735;BME280;19112;51.076;3.706;2023-02-01T09:40:19;101971.53;;;7.99;69.58
32735;BME280;19112;51.076;3.706;2023-02-01T09:46:21;102053.44;;;8.54;69.55
32735;BME280;19112;51.076;3.706;2023-02-01T09:48:53;102225.47;;;9.55;69.40
32735;BME280;19112;51.076;3.706;2023-02-01T09:51:27;101912.53;;;7.74;69.18
32735;BME280;19112;51.076;3.706;2023-02-01T09:54:22;102145.72;;;9.07;69.06
32735;BME280;19112;51.076;3.706;2023-02-01T09:57:22;102066.19;;;8.77;68.75
32735;BME280;19112;51.076;3.706;2023-02-01T10:00:04;102070.47;;;8.75;68.31
32735;BME280;19112;51.076;3.706;2023-02-01T10:02:35;102229.63;;;9.81;68.27
32735;BME280;19112;51.076;3.706;2023-02-01T10:05:03;102007.31;;;8.56;67.67
32735;BME280;19112;51.076;3.706;2023-02-01T10:08:04;102147.72;;;9.41;67.11
32735;BME280;19112;51.076;3.706;2023-02-01T10:10:49;102201.13;;;9.58;67.17
32735;BME280;19112;51.076;3.706;2023-02-01T10:13:49;102230.78;;;9.86;67.70
32735;BME280;19112;51.076;3.706;2023-02-01T10:16:46;102116.72;;;9.19;67.41
32735;BME280;19112;51.076;3.706;2023-02-01T10:19:22;102243.56;;;9.80;67.43
32735;BME280;19112;51.076;3.706;2023-02-01T10:22:06;102200.41;;;9.75;67.17
32735;BME280;19112;51.076;3.706;2023-02-01T10:24:40;102164.06;;;9.66;66.68
32735;BME280;19112;51.076;3.706;2023-02-01T10:27:33;102117.63;;;9.34;66.37
32735;BME280;19112;51.076;3.706;2023-02-01T10:30:09;101875.53;;;7.96;65.93
32735;BME280;19112;51.076;3.706;2023-02-01T10:32:40;102158.38;;;9.44;66.37
32735;BME280;19112;51.076;3.706;2023-02-01T10:35:31;102228.25;;;9.88;66.40
32735;BME280;19112;51.076;3.706;2023-02-01T10:38:01;102125.66;;;9.37;65.35
32735;BME280;19112;51.076;3.706;2023-02-01T10:40:27;102221.91;;;9.99;64.50
32735;BME280;19112;51.076;3.706;2023-02-01T10:43:01;102196.84;;;9.89;64.47
32735;BME280;19112;51.076;3.706;2023-02-01T10:45:32;102154.41;;;9.51;63.85
32735;BME280;19112;51.076;3.706;2023-02-01T10:48:00;102140.38;;;9.65;64.11
32735;BME280;19112;51.076;3.706;2023-02-01T10:50:56;102208.69;;;10.12;63.75
32735;BME280;19112;51.076;3.706;2023-02-01T10:53:42;102139.97;;;9.88;62.89
32735;BME280;19112;51.076;3.706;2023-02-01T10:56:11;102147.72;;;10.02;61.97
32735;BME280;19112;51.076;3.706;2023-02-01T10:58:46;102028.91;;;9.57;61.84
32735;BME280;19112;51.076;3.706;2023-02-01T11:01:35;102154.88;;;10.52;61.24
32735;BME280;19112;51.076;3.706;2023-02-01T11:04:11;102216.72;;;10.61;60.96
32735;BME280;19112;51.076;3.706;2023-02-01T11:06:43;102150.00;;;10.27;61.16
32735;BME280;19112;51.076;3.706;2023-02-01T11:11:58;102059.72;;;9.92;59.85
32735;BME280;19112;51.076;3.706;2023-02-01T11:19:19;102143.53;;;11.01;58.97
32735;BME280;19112;51.076;3.706;2023-02-01T11:21:57;102197.53;;;11.45;56.54
32735;BME280;19112;51.076;3.706;2023-02-01T11:24:33;102153.63;;;11.44;56.92
32735;BME280;19112;51.076;3.706;2023-02-01T11:27:12;101933.72;;;9.90;56.70
32735;BME280;19112;51.076;3.706;2023-02-01T11:29:43;102031.50;;;10.35;56.89
32735;BME280;19112;51.076;3.706;2023-02-01T11:32:11;102194.44;;;11.36;56.62
32735;BME280;19112;51.076;3.706;2023-02-01T11:34:49;102167.56;;;11.25;56.96
32735;BME280;19112;51.076;3.706;2023-02-01T11:37:31;102125.06;;;11.34;56.99
32735;BME280;19112;51.076;3.706;2023-02-01T11:40:04;102077.06;;;11.38;56.92
32735;BME280;19112;51.076;3.706;2023-02-01T11:43:07;102181.06;;;12.01;56.61
32735;BME280;19112;51.076;3.706;2023-02-01T11:45:34;102190.69;;;12.01;55.88
32735;BME280;19112;51.076;3.706;2023-02-01T11:48:09;102090.00;;;11.51;55.54
32735;BME280;19112;51.076;3.706;2023-02-01T11:57:17;102107.75;;;11.73;54.78
32735;BME280;19112;51.076;3.706;2023-02-01T12:12:24;102079.50;;;11.51;54.83
32735;BME280;19112;51.076;3.706;2023-02-01T12:24:11;102146.91;;;12.21;53.74
32735;BME280;19112;51.076;3.706;2023-02-01T12:41:57;102136.22;;;12.18;54.14
32735;BME280;19112;51.076;3.706;2023-02-01T12:44:34;102099.63;;;11.87;53.87
32735;BME280;19112;51.076;3.706;2023-02-01T12:49:53;102138.31;;;12.25;53.78
32735;BME280;19112;51.076;3.706;2023-02-01T12:52:35;102039.13;;;11.69;53.34
32735;BME280;19112;51.076;3.706;2023-02-01T12:55:25;102121.19;;;11.97;53.26
32735;BME280;19112;51.076;3.706;2023-02-01T12:58:23;102109.31;;;11.70;54.13
32735;BME280;19112;51.076;3.706;2023-02-01T13:01:02;102016.66;;;11.22;53.58
32735;BME280;19112;51.076;3.706;2023-02-01T13:06:50;102043.41;;;11.49;53.48
32735;BME280;19112;51.076;3.706;2023-02-01T13:10:03;102135.72;;;12.07;53.97
32735;BME280;19112;51.076;3.706;2023-02-01T13:13:08;101936.06;;;10.69;53.96
32735;BME280;19112;51.076;3.706;2023-02-01T13:15:43;101806.31;;;9.95;54.04
32735;BME280;19112;51.076;3.706;2023-02-01T13:18:16;102072.25;;;11.65;54.00
32735;BME280;19112;51.076;3.706;2023-02-01T13:21:49;101988.59;;;11.03;53.58
32735;BME280;19112;51.076;3.706;2023-02-01T13:23:46;102158.22;;;11.66;53.93
32735;BME280;19112;51.076;3.706;2023-02-01T13:26:14;102150.19;;;11.63;54.90
32735;BME280;19112;51.076;3.706;2023-02-01T13:28:56;101951.41;;;10.43;54.53
32735;BME280;19112;51.076;3.706;2023-02-01T13:31:57;102118.59;;;11.27;54.78
32735;BME280;19112;51.076;3.706;2023-02-01T13:38:04;102115.84;;;11.60;54.73
32735;BME280;19112;51.076;3.706;2023-02-01T13:41:11;102070.53;;;11.30;54.80
32735;BME280;19112;51.076;3.706;2023-02-01T13:43:48;102120.72;;;11.70;55.17
32735;BME280;19112;51.076;3.706;2023-02-01T13:46:15;101928.25;;;10.53;54.24
32735;BME280;19112;51.076;3.706;2023-02-01T13:49:01;102154.34;;;12.12;54.39
32735;BME280;19112;51.076;3.706;2023-02-01T13:51:45;102076.00;;;11.70;54.18
32735;BME280;19112;51.076;3.706;2023-02-01T13:54:37;102085.72;;;11.53;54.56
32735;BME280;19112;51.076;3.706;2023-02-01T13:59:51;102081.72;;;11.44;54.95
32735;BME280;19112;51.076;3.706;2023-02-01T14:08:13;102094.63;;;11.39;55.70
32735;BME280;19112;51.076;3.706;2023-02-01T14:10:48;102173.22;;;12.03;55.14
32735;BME280;19112;51.076;3.706;2023-02-01T14:13:42;102075.88;;;11.49;55.46
32735;BME280;19112;51.076;3.706;2023-02-01T14:16:17;102125.69;;;11.64;55.66
32735;BME280;19112;51.076;3.706;2023-02-01T14:21:34;102027.31;;;11.07;55.88
32735;BME280;19112;51.076;3.706;2023-02-01T14:24:29;102146.38;;;11.57;56.51
32735;BME280;19112;51.076;3.706;2023-02-01T14:26:58;102029.59;;;10.65;56.94
32735;BME280;19112;51.076;3.706;2023-02-01T14:29:51;102076.16;;;10.86;57.00
32735;BME280;19112;51.076;3.706;2023-02-01T14:32:25;101935.59;;;10.09;56.97
32735;BME280;19112;51.076;3.706;2023-02-01T14:34:55;102111.34;;;11.06;57.48
32735;BME280;19112;51.076;3.706;2023-02-01T14:37:29;101906.94;;;9.96;57.43
32735;BME280;19112;51.076;3.706;2023-02-01T14:42:47;102180.03;;;11.64;57.84
32735;BME280;19112;51.076;3.706;2023-02-01T14:59:08;101934.97;;;10.13;58.07
32735;BME280;19112;51.076;3.706;2023-02-01T15:01:39;102186.13;;;11.63;58.26
32735;BME280;19112;51.076;3.706;2023-02-01T15:04:16;101654.19;;;8.28;58.67
32735;BME280;19112;51.076;3.706;2023-02-01T15:06:52;102018.28;;;10.50;58.51
32735;BME280;19112;51.076;3.706;2023-02-01T15:09:28;101996.78;;;10.08;58.87
32735;BME280;19112;51.076;3.706;2023-02-01T15:14:45;102131.66;;;11.08;59.14
32735;BME280;19112;51.076;3.706;2023-02-01T15:17:27;102172.84;;;11.25;59.01